sensor_id;sensor_type;location;lat;lon;timestamp;P1;durP1;ratioP1;P2;durP2;ratioP2
69588;SDS011;56792;50.644;17.984;2023-06-22T00:01:21;18.10;;;14.70;;
69588;SDS011;56792;50.644;17.984;2023-06-22T00:03:50;17.80;;;15.00;;
69588;SDS011;56792;50.644;17.984;2023-06-22T00:06:18;18.70;;;14.50;;
69588;SDS011;56792;50.644;17.984;2023-06-22T00:08:46;25.10;;;15.50;;
69588;SDS011;56792;50.644;17.984;2023-06-22T00:11:15;18.90;;;14.80;;
69588;SDS011;56792;50.644;17.984;2023-06-22T00:13:43;19.80;;;14.70;;
69588;SDS011;56792;50.644;17.984;2023-06-22T00:16:11;19.90;;;15.20;;
69588;SDS011;56792;50.644;17.984;2023-06-22T00:18:40;20.30;;;14.30;;
69588;SDS011;56792;50.644;17.984;2023-06-22T00:21:13;21.20;;;16.10;;
69588;SDS011;56792;50.644;17.984;2023-06-22T00:23:42;19.50;;;15.20;;
69588;SDS011;56792;50.644;17.984;2023-06-22T00:26:10;21.50;;;15.40;;
69588;SDS011;56792;50.644;17.984;2023-06-22T00:28:38;24.40;;;15.20;;
69588;SDS011;56792;50.644;17.984;2023-06-22T00:31:06;17.50;;;14.20;;
69588;SDS011;56792;50.644;17.984;2023-06-22T00:33:35;17.80;;;14.30;;
69588;SDS011;56792;50.644;17.984;2023-06-22T00:36:06;21.20;;;14.30;;
69588;SDS011;56792;50.644;17.984;2023-06-22T00:38:34;21.50;;;14.70;;
69588;SDS011;56792;50.644;17.984;2023-06-22T00:41:06;19.00;;;14.40;;
69588;SDS011;56792;50.644;17.984;2023-06-22T00:43:36;21.90;;;14.30;;
69588;SDS011;56792;50.644;17.984;2023-06-22T00:46:04;19.20;;;15.90;;
69588;SDS011;56792;50.644;17.984;2023-06-22T00:48:32;20.80;;;15.30;;
69588;SDS011;56792;50.644;17.984;2023-06-22T00:51:03;24.60;;;15.00;;
69588;SDS011;56792;50.644;17.984;2023-06-22T00:53:32;21.90;;;14.70;;
69588;SDS011;56792;50.644;17.984;2023-06-22T00:56:01;23.00;;;15.30;;
69588;SDS011;56792;50.644;17.984;2023-06-22T00:58:32;22.00;;;15.90;;
69588;SDS011;56792;50.644;17.984;2023-06-22T01:01:00;23.00;;;15.10;;
69588;SDS011;56792;50.644;17.984;2023-06-22T01:03:29;21.90;;;15.30;;
69588;SDS011;56792;50.644;17.984;2023-06-22T01:06:04;24.50;;;15.80;;
69588;SDS011;56792;50.644;17.984;2023-06-22T01:08:44;20.70;;;14.20;;
69588;SDS011;56792;50.644;17.984;2023-06-22T01:11:21;23.00;;;14.90;;
69588;SDS011;56792;50.644;17.984;2023-06-22T01:14:00;23.70;;;16.00;;
69588;SDS011;56792;50.644;17.984;2023-06-22T01:16:35;23.10;;;16.10;;
69588;SDS011;56792;50.644;17.984;2023-06-22T01:19:20;22.50;;;14.90;;
69588;SDS011;56792;50.644;17.984;2023-06-22T01:21:57;21.30;;;15.80;;
69588;SDS011;56792;50.644;17.984;2023-06-22T01:24:32;21.40;;;15.70;;
69588;SDS011;56792;50.644;17.984;2023-06-22T01:27:22;25.00;;;16.50;;
69588;SDS011;56792;50.644;17.984;2023-06-22T01:29:59;22.70;;;14.70;;
69588;SDS011;56792;50.644;17.984;2023-06-22T01:32:31;22.70;;;15.60;;
69588;SDS011;56792;50.644;17.984;2023-06-22T01:35:04;24.90;;;15.40;;
69588;SDS011;56792;50.644;17.984;2023-06-22T01:37:35;19.10;;;15.20;;
69588;SDS011;56792;50.644;17.984;2023-06-22T01:40:07;23.90;;;15.20;;
69588;SDS011;56792;50.644;17.984;2023-06-22T01:42:37;22.50;;;15.10;;
69588;SDS011;56792;50.644;17.984;2023-06-22T01:45:09;24.20;;;14.90;;
69588;SDS011;56792;50.644;17.984;2023-06-22T01:47:38;23.20;;;15.10;;
69588;SDS011;56792;50.644;17.984;2023-06-22T01:50:09;22.90;;;15.30;;
69588;SDS011;56792;50.644;17.984;2023-06-22T01:52:37;20.80;;;15.50;;
69588;SDS011;56792;50.644;17.984;2023-06-22T01:55:07;21.60;;;14.10;;
69588;SDS011;56792;50.644;17.984;2023-06-22T01:57:36;20.60;;;14.90;;
69588;SDS011;56792;50.644;17.984;2023-06-22T02:00:09;19.80;;;14.80;;
69588;SDS011;56792;50.644;17.984;2023-06-22T02:02:45;20.40;;;15.70;;
69588;SDS011;56792;50.644;17.984;2023-06-22T02:05:19;21.00;;;15.40;;
69588;SDS011;56792;50.644;17.984;2023-06-22T02:07:55;19.80;;;14.80;;
69588;SDS011;56792;50.644;17.984;2023-06-22T02:10:28;23.80;;;16.10;;
69588;SDS011;56792;50.644;17.984;2023-06-22T02:12:59;22.50;;;15.60;;
69588;SDS011;56792;50.644;17.984;2023-06-22T02:15:30;25.00;;;15.90;;
69588;SDS011;56792;50.644;17.984;2023-06-22T02:17:59;25.20;;;17.10;;
69588;SDS011;56792;50.644;17.984;2023-06-22T02:20:27;21.50;;;15.50;;
69588;SDS011;56792;50.644;17.984;2023-06-22T02:22:57;22.40;;;15.80;;
69588;SDS011;56792;50.644;17.984;2023-06-22T02:25:25;22.30;;;15.40;;
69588;SDS011;56792;50.644;17.984;2023-06-22T02:27:53;23.30;;;16.20;;
69588;SDS011;56792;50.644;17.984;2023-06-22T02:30:22;21.10;;;15.60;;
69588;SDS011;56792;50.644;17.984;2023-06-22T02:32:50;22.40;;;14.80;;
69588;SDS011;56792;50.644;17.984;2023-06-22T02:35:25;20.90;;;16.30;;
69588;SDS011;56792;50.644;17.984;2023-06-22T02:37:54;24.20;;;17.40;;
69588;SDS011;56792;50.644;17.984;2023-06-22T02:40:22;23.60;;;16.50;;
69588;SDS011;56792;50.644;17.984;2023-06-22T02:42:50;23.00;;;17.10;;
69588;SDS011;56792;50.644;17.984;2023-06-22T02:45:19;25.40;;;16.80;;
69588;SDS011;56792;50.644;17.984;2023-06-22T02:47:47;23.50;;;17.30;;
69588;SDS011;56792;50.644;17.984;2023-06-22T02:50:16;26.30;;;16.90;;
69588;SDS011;56792;50.644;17.984;2023-06-22T02:52:45;24.60;;;16.80;;
69588;SDS011;56792;50.644;17.984;2023-06-22T02:55:14;24.60;;;16.90;;
69588;SDS011;56792;50.644;17.984;2023-06-22T02:57:44;21.60;;;16.80;;
69588;SDS011;56792;50.644;17.984;2023-06-22T03:00:14;22.10;;;16.20;;
69588;SDS011;56792;50.644;17.984;2023-06-22T03:02:44;23.20;;;16.60;;
69588;SDS011;56792;50.644;17.984;2023-06-22T03:05:14;24.30;;;16.30;;
69588;SDS011;56792;50.644;17.984;2023-06-22T03:07:45;21.30;;;15.80;;
69588;SDS011;56792;50.644;17.984;2023-06-22T03:10:14;21.50;;;16.10;;
69588;SDS011;56792;50.644;17.984;2023-06-22T03:12:43;21.40;;;16.40;;
69588;SDS011;56792;50.644;17.984;2023-06-22T03:15:13;21.20;;;15.90;;
69588;SDS011;56792;50.644;17.984;2023-06-22T03:17:41;22.40;;;16.00;;
69588;SDS011;56792;50.644;17.984;2023-06-22T03:20:10;21.60;;;16.40;;
69588;SDS011;56792;50.644;17.984;2023-06-22T03:22:40;23.40;;;16.30;;
69588;SDS011;56792;50.644;17.984;2023-06-22T03:25:10;21.80;;;16.30;;
69588;SDS011;56792;50.644;17.984;2023-06-22T03:27:40;23.00;;;16.60;;
69588;SDS011;56792;50.644;17.984;2023-06-22T03:30:12;20.90;;;15.80;;
69588;SDS011;56792;50.644;17.984;2023-06-22T03:32:40;23.50;;;16.40;;
69588;SDS011;56792;50.644;17.984;2023-06-22T03:35:10;23.60;;;15.90;;
69588;SDS011;56792;50.644;17.984;2023-06-22T03:37:40;22.50;;;16.90;;
69588;SDS011;56792;50.644;17.984;2023-06-22T03:40:11;23.10;;;16.40;;
69588;SDS011;56792;50.644;17.984;2023-06-22T03:42:40;21.90;;;16.80;;
69588;SDS011;56792;50.644;17.984;2023-06-22T03:45:10;20.10;;;16.30;;
69588;SDS011;56792;50.644;17.984;2023-06-22T03:47:39;22.70;;;17.50;;
69588;SDS011;56792;50.644;17.984;2023-06-22T03:50:09;23.90;;;16.60;;
69588;SDS011;56792;50.644;17.984;2023-06-22T03:52:40;26.00;;;16.80;;
69588;SDS011;56792;50.644;17.984;2023-06-22T03:55:09;24.30;;;17.40;;
69588;SDS011;56792;50.644;17.984;2023-06-22T03:57:37;23.80;;;16.20;;
69588;SDS011;56792;50.644;17.984;2023-06-22T04:00:08;23.30;;;16.40;;
69588;SDS011;56792;50.644;17.984;2023-06-22T04:02:41;24.20;;;17.80;;
69588;SDS011;56792;50.644;17.984;2023-06-22T04:05:10;19.80;;;15.30;;
69588;SDS011;56792;50.644;17.984;2023-06-22T04:07:38;24.00;;;16.30;;
69588;SDS011;56792;50.644;17.984;2023-06-22T04:10:07;23.70;;;17.60;;
69588;SDS011;56792;50.644;17.984;2023-06-22T04:12:36;23.00;;;16.50;;
69588;SDS011;56792;50.644;17.984;2023-06-22T04:15:06;21.60;;;16.30;;
69588;SDS011;56792;50.644;17.984;2023-06-22T04:17:36;22.80;;;17.20;;
69588;SDS011;56792;50.644;17.984;2023-06-22T04:20:06;23.70;;;17.60;;
69588;SDS011;56792;50.644;17.984;2023-06-22T04:22:35;24.10;;;18.90;;
69588;SDS011;56792;50.644;17.984;2023-06-22T04:25:05;23.60;;;18.20;;
69588;SDS011;56792;50.644;17.984;2023-06-22T04:27:34;23.20;;;18.50;;
69588;SDS011;56792;50.644;17.984;2023-06-22T04:30:06;28.00;;;18.50;;
69588;SDS011;56792;50.644;17.984;2023-06-22T04:32:35;27.50;;;19.60;;
69588;SDS011;56792;50.644;17.984;2023-06-22T04:35:04;25.50;;;19.40;;
69588;SDS011;56792;50.644;17.984;2023-06-22T04:37:33;25.30;;;19.20;;
69588;SDS011;56792;50.644;17.984;2023-06-22T04:40:01;30.10;;;19.50;;
69588;SDS011;56792;50.644;17.984;2023-06-22T04:42:33;26.10;;;19.40;;
69588;SDS011;56792;50.644;17.984;2023-06-22T04:45:03;26.10;;;20.00;;
69588;SDS011;56792;50.644;17.984;2023-06-22T04:47:32;25.90;;;20.90;;
69588;SDS011;56792;50.644;17.984;2023-06-22T04:50:01;24.90;;;20.00;;
69588;SDS011;56792;50.644;17.984;2023-06-22T04:52:32;28.80;;;22.40;;
69588;SDS011;56792;50.644;17.984;2023-06-22T04:55:00;31.40;;;24.60;;
69588;SDS011;56792;50.644;17.984;2023-06-22T04:57:30;29.60;;;23.10;;
69588;SDS011;56792;50.644;17.984;2023-06-22T04:59:59;33.00;;;24.20;;
69588;SDS011;56792;50.644;17.984;2023-06-22T05:02:39;29.50;;;22.90;;
69588;SDS011;56792;50.644;17.984;2023-06-22T05:05:08;32.30;;;23.30;;
69588;SDS011;56792;50.644;17.984;2023-06-22T05:07:42;28.20;;;22.70;;
69588;SDS011;56792;50.644;17.984;2023-06-22T05:10:11;27.40;;;21.60;;
69588;SDS011;56792;50.644;17.984;2023-06-22T05:12:40;28.60;;;22.90;;
69588;SDS011;56792;50.644;17.984;2023-06-22T05:15:09;30.90;;;21.70;;
69588;SDS011;56792;50.644;17.984;2023-06-22T05:17:38;29.50;;;23.10;;
69588;SDS011;56792;50.644;17.984;2023-06-22T05:20:11;27.40;;;21.20;;
69588;SDS011;56792;50.644;17.984;2023-06-22T05:22:40;28.80;;;21.90;;
69588;SDS011;56792;50.644;17.984;2023-06-22T05:25:10;28.20;;;21.40;;
69588;SDS011;56792;50.644;17.984;2023-06-22T05:27:39;29.30;;;21.30;;
69588;SDS011;56792;50.644;17.984;2023-06-22T05:30:08;25.50;;;20.00;;
69588;SDS011;56792;50.644;17.984;2023-06-22T05:32:38;25.40;;;19.40;;
69588;SDS011;56792;50.644;17.984;2023-06-22T05:35:07;26.20;;;19.90;;
69588;SDS011;56792;50.644;17.984;2023-06-22T05:37:36;24.70;;;19.60;;
69588;SDS011;56792;50.644;17.984;2023-06-22T05:40:07;24.10;;;18.10;;
69588;SDS011;56792;50.644;17.984;2023-06-22T05:42:37;24.30;;;18.90;;
69588;SDS011;56792;50.644;17.984;2023-06-22T05:45:07;23.60;;;19.20;;
69588;SDS011;56792;50.644;17.984;2023-06-22T05:47:36;22.40;;;17.60;;
69588;SDS011;56792;50.644;17.984;2023-06-22T05:50:06;22.00;;;17.10;;
69588;SDS011;56792;50.644;17.984;2023-06-22T05:52:35;20.40;;;17.00;;
69588;SDS011;56792;50.644;17.984;2023-06-22T05:55:04;23.10;;;16.90;;
69588;SDS011;56792;50.644;17.984;2023-06-22T05:57:33;20.50;;;15.40;;
69588;SDS011;56792;50.644;17.984;2023-06-22T06:00:02;20.40;;;16.80;;
69588;SDS011;56792;50.644;17.984;2023-06-22T06:02:34;21.40;;;16.80;;
69588;SDS011;56792;50.644;17.984;2023-06-22T06:05:02;19.30;;;15.40;;
69588;SDS011;56792;50.644;17.984;2023-06-22T06:07:31;17.50;;;15.60;;
69588;SDS011;56792;50.644;17.984;2023-06-22T06:10:01;20.10;;;16.00;;
69588;SDS011;56792;50.644;17.984;2023-06-22T06:12:29;20.30;;;16.10;;
69588;SDS011;56792;50.644;17.984;2023-06-22T06:14:57;19.80;;;16.00;;
69588;SDS011;56792;50.644;17.984;2023-06-22T06:17:26;19.30;;;14.40;;
69588;SDS011;56792;50.644;17.984;2023-06-22T06:19:54;18.50;;;15.60;;
69588;SDS011;56792;50.644;17.984;2023-06-22T06:22:22;19.10;;;15.70;;
69588;SDS011;56792;50.644;17.984;2023-06-22T06:24:50;19.30;;;15.70;;
69588;SDS011;56792;50.644;17.984;2023-06-22T06:27:19;18.90;;;14.50;;
69588;SDS011;56792;50.644;17.984;2023-06-22T06:29:47;18.30;;;15.00;;
69588;SDS011;56792;50.644;17.984;2023-06-22T06:32:15;17.70;;;14.10;;
69588;SDS011;56792;50.644;17.984;2023-06-22T06:34:43;17.60;;;14.00;;
69588;SDS011;56792;50.644;17.984;2023-06-22T06:37:11;16.60;;;14.50;;
69588;SDS011;56792;50.644;17.984;2023-06-22T06:39:40;20.00;;;15.20;;
69588;SDS011;56792;50.644;17.984;2023-06-22T06:42:08;20.90;;;15.70;;
69588;SDS011;56792;50.644;17.984;2023-06-22T06:44:37;17.30;;;14.20;;
69588;SDS011;56792;50.644;17.984;2023-06-22T06:47:06;18.90;;;14.50;;
69588;SDS011;56792;50.644;17.984;2023-06-22T06:49:34;17.50;;;14.20;;
69588;SDS011;56792;50.644;17.984;2023-06-22T06:52:03;17.00;;;13.60;;
69588;SDS011;56792;50.644;17.984;2023-06-22T06:54:33;15.10;;;13.50;;
69588;SDS011;56792;50.644;17.984;2023-06-22T06:57:01;16.20;;;13.80;;
69588;SDS011;56792;50.644;17.984;2023-06-22T06:59:30;16.00;;;13.80;;
69588;SDS011;56792;50.644;17.984;2023-06-22T07:01:58;17.50;;;14.50;;
69588;SDS011;56792;50.644;17.984;2023-06-22T07:04:27;18.30;;;14.60;;
69588;SDS011;56792;50.644;17.984;2023-06-22T07:06:55;15.00;;;13.40;;
69588;SDS011;56792;50.644;17.984;2023-06-22T07:09:26;15.20;;;11.80;;
69588;SDS011;56792;50.644;17.984;2023-06-22T07:11:54;16.00;;;11.70;;
69588;SDS011;56792;50.644;17.984;2023-06-22T07:14:22;13.80;;;11.60;;
69588;SDS011;56792;50.644;17.984;2023-06-22T07:16:50;13.70;;;10.80;;
69588;SDS011;56792;50.644;17.984;2023-06-22T07:19:25;13.70;;;10.10;;
69588;SDS011;56792;50.644;17.984;2023-06-22T07:21:54;12.30;;;10.80;;
69588;SDS011;56792;50.644;17.984;2023-06-22T07:24:23;12.90;;;11.00;;
69588;SDS011;56792;50.644;17.984;2023-06-22T07:26:52;14.60;;;12.10;;
69588;SDS011;56792;50.644;17.984;2023-06-22T07:29:20;13.50;;;11.00;;
69588;SDS011;56792;50.644;17.984;2023-06-22T07:31:50;13.60;;;11.40;;
69588;SDS011;56792;50.644;17.984;2023-06-22T07:34:18;12.50;;;11.00;;
69588;SDS011;56792;50.644;17.984;2023-06-22T07:36:47;12.90;;;11.20;;
69588;SDS011;56792;50.644;17.984;2023-06-22T07:39:15;15.00;;;12.40;;
69588;SDS011;56792;50.644;17.984;2023-06-22T07:41:44;14.40;;;11.80;;
69588;SDS011;56792;50.644;17.984;2023-06-22T07:44:12;12.30;;;10.80;;
69588;SDS011;56792;50.644;17.984;2023-06-22T07:46:40;13.90;;;11.80;;
69588;SDS011;56792;50.644;17.984;2023-06-22T07:49:08;12.90;;;10.80;;
69588;SDS011;56792;50.644;17.984;2023-06-22T07:51:37;13.50;;;11.20;;
69588;SDS011;56792;50.644;17.984;2023-06-22T07:54:05;15.60;;;11.60;;
69588;SDS011;56792;50.644;17.984;2023-06-22T07:56:33;13.40;;;12.00;;
69588;SDS011;56792;50.644;17.984;2023-06-22T07:59:03;13.00;;;10.80;;
69588;SDS011;56792;50.644;17.984;2023-06-22T08:01:31;12.80;;;10.90;;
69588;SDS011;56792;50.644;17.984;2023-06-22T08:03:59;14.50;;;11.20;;
69588;SDS011;56792;50.644;17.984;2023-06-22T08:06:30;13.10;;;10.70;;
69588;SDS011;56792;50.644;17.984;2023-06-22T08:08:58;12.70;;;10.30;;
69588;SDS011;56792;50.644;17.984;2023-06-22T08:11:26;12.40;;;10.60;;
69588;SDS011;56792;50.644;17.984;2023-06-22T08:13:55;12.30;;;10.80;;
69588;SDS011;56792;50.644;17.984;2023-06-22T08:16:25;12.30;;;10.00;;
69588;SDS011;56792;50.644;17.984;2023-06-22T08:18:53;13.10;;;10.70;;
69588;SDS011;56792;50.644;17.984;2023-06-22T08:21:21;13.00;;;11.10;;
69588;SDS011;56792;50.644;17.984;2023-06-22T08:23:50;12.20;;;10.50;;
69588;SDS011;56792;50.644;17.984;2023-06-22T08:26:18;14.30;;;10.90;;
69588;SDS011;56792;50.644;17.984;2023-06-22T08:28:46;12.70;;;10.90;;
69588;SDS011;56792;50.644;17.984;2023-06-22T08:31:15;12.80;;;11.00;;
69588;SDS011;56792;50.644;17.984;2023-06-22T08:33:43;13.60;;;10.50;;
69588;SDS011;56792;50.644;17.984;2023-06-22T08:36:13;12.80;;;9.80;;
69588;SDS011;56792;50.644;17.984;2023-06-22T08:38:41;11.80;;;10.20;;
69588;SDS011;56792;50.644;17.984;2023-06-22T08:41:09;12.30;;;10.60;;
69588;SDS011;56792;50.644;17.984;2023-06-22T08:43:37;12.10;;;10.60;;
69588;SDS011;56792;50.644;17.984;2023-06-22T08:46:06;11.90;;;10.50;;
69588;SDS011;56792;50.644;17.984;2023-06-22T08:48:34;11.60;;;10.00;;
69588;SDS011;56792;50.644;17.984;2023-06-22T08:51:02;12.50;;;10.30;;
69588;SDS011;56792;50.644;17.984;2023-06-22T08:53:31;12.30;;;10.10;;
69588;SDS011;56792;50.644;17.984;2023-06-22T08:56:01;11.60;;;9.40;;
69588;SDS011;56792;50.644;17.984;2023-06-22T08:58:29;11.40;;;9.40;;
69588;SDS011;56792;50.644;17.984;2023-06-22T09:00:58;11.60;;;9.60;;
69588;SDS011;56792;50.644;17.984;2023-06-22T09:03:27;10.10;;;8.70;;
69588;SDS011;56792;50.644;17.984;2023-06-22T09:05:56;10.30;;;9.10;;
69588;SDS011;56792;50.644;17.984;2023-06-22T09:08:24;11.20;;;8.90;;
69588;SDS011;56792;50.644;17.984;2023-06-22T09:10:52;10.20;;;8.90;;
69588;SDS011;56792;50.644;17.984;2023-06-22T09:13:21;9.90;;;8.60;;
69588;SDS011;56792;50.644;17.984;2023-06-22T09:15:49;9.80;;;8.60;;
69588;SDS011;56792;50.644;17.984;2023-06-22T09:18:17;10.80;;;9.20;;
69588;SDS011;56792;50.644;17.984;2023-06-22T09:20:46;10.40;;;8.40;;
69588;SDS011;56792;50.644;17.984;2023-06-22T09:23:15;10.00;;;7.90;;
69588;SDS011;56792;50.644;17.984;2023-06-22T09:25:43;8.80;;;7.90;;
69588;SDS011;56792;50.644;17.984;2023-06-22T09:28:14;10.90;;;8.50;;
69588;SDS011;56792;50.644;17.984;2023-06-22T09:30:43;9.40;;;8.20;;
69588;SDS011;56792;50.644;17.984;2023-06-22T09:33:11;9.30;;;8.00;;
69588;SDS011;56792;50.644;17.984;2023-06-22T09:35:40;9.60;;;8.40;;
69588;SDS011;56792;50.644;17.984;2023-06-22T09:38:08;9.20;;;7.80;;
69588;SDS011;56792;50.644;17.984;2023-06-22T09:40:36;8.80;;;7.30;;
69588;SDS011;56792;50.644;17.984;2023-06-22T09:43:06;9.10;;;7.80;;
69588;SDS011;56792;50.644;17.984;2023-06-22T09:45:35;9.20;;;8.20;;
69588;SDS011;56792;50.644;17.984;2023-06-22T09:48:03;8.40;;;7.40;;
69588;SDS011;56792;50.644;17.984;2023-06-22T09:50:32;10.70;;;7.80;;
69588;SDS011;56792;50.644;17.984;2023-06-22T09:53:00;9.20;;;7.50;;
69588;SDS011;56792;50.644;17.984;2023-06-22T09:55:29;9.80;;;7.80;;
69588;SDS011;56792;50.644;17.984;2023-06-22T09:57:57;9.10;;;8.10;;
69588;SDS011;56792;50.644;17.984;2023-06-22T10:00:25;8.90;;;7.70;;
69588;SDS011;56792;50.644;17.984;2023-06-22T10:02:53;9.00;;;8.10;;
69588;SDS011;56792;50.644;17.984;2023-06-22T10:05:22;9.70;;;8.30;;
69588;SDS011;56792;50.644;17.984;2023-06-22T10:07:51;9.80;;;8.50;;
69588;SDS011;56792;50.644;17.984;2023-06-22T10:10:19;9.20;;;8.20;;
69588;SDS011;56792;50.644;17.984;2023-06-22T10:12:55;9.20;;;8.30;;
69588;SDS011;56792;50.644;17.984;2023-06-22T10:15:25;9.90;;;8.30;;
69588;SDS011;56792;50.644;17.984;2023-06-22T10:17:53;7.90;;;6.90;;
69588;SDS011;56792;50.644;17.984;2023-06-22T10:20:22;8.70;;;7.60;;
69588;SDS011;56792;50.644;17.984;2023-06-22T10:22:50;9.10;;;7.80;;
69588;SDS011;56792;50.644;17.984;2023-06-22T10:25:19;9.90;;;8.20;;
69588;SDS011;56792;50.644;17.984;2023-06-22T10:27:48;8.70;;;7.60;;
69588;SDS011;56792;50.644;17.984;2023-06-22T10:30:18;9.00;;;7.40;;
69588;SDS011;56792;50.644;17.984;2023-06-22T10:32:46;8.80;;;7.50;;
69588;SDS011;56792;50.644;17.984;2023-06-22T10:35:15;9.10;;;8.10;;
69588;SDS011;56792;50.644;17.984;2023-06-22T10:37:44;9.10;;;8.20;;
69588;SDS011;56792;50.644;17.984;2023-06-22T10:40:14;8.70;;;7.70;;
69588;SDS011;56792;50.644;17.984;2023-06-22T10:42:43;9.10;;;8.20;;
69588;SDS011;56792;50.644;17.984;2023-06-22T10:45:12;9.30;;;8.30;;
69588;SDS011;56792;50.644;17.984;2023-06-22T10:47:40;8.70;;;7.80;;
69588;SDS011;56792;50.644;17.984;2023-06-22T10:50:10;8.60;;;7.70;;
69588;SDS011;56792;50.644;17.984;2023-06-22T10:52:38;10.00;;;8.90;;
69588;SDS011;56792;50.644;17.984;2023-06-22T10:55:09;11.30;;;9.30;;
69588;SDS011;56792;50.644;17.984;2023-06-22T10:57:38;10.90;;;9.80;;
69588;SDS011;56792;50.644;17.984;2023-06-22T11:00:11;10.20;;;9.00;;
69588;SDS011;56792;50.644;17.984;2023-06-22T11:02:41;9.30;;;8.30;;
69588;SDS011;56792;50.644;17.984;2023-06-22T11:05:09;10.10;;;8.70;;
69588;SDS011;56792;50.644;17.984;2023-06-22T11:07:38;9.80;;;8.80;;
69588;SDS011;56792;50.644;17.984;2023-06-22T11:10:10;9.70;;;8.70;;
69588;SDS011;56792;50.644;17.984;2023-06-22T11:12:39;9.80;;;8.80;;
69588;SDS011;56792;50.644;17.984;2023-06-22T11:15:09;9.80;;;8.80;;
69588;SDS011;56792;50.644;17.984;2023-06-22T11:17:37;9.20;;;8.30;;
69588;SDS011;56792;50.644;17.984;2023-06-22T11:20:07;10.10;;;9.10;;
69588;SDS011;56792;50.644;17.984;2023-06-22T11:22:38;9.70;;;8.70;;
69588;SDS011;56792;50.644;17.984;2023-06-22T11:25:07;9.60;;;8.70;;
69588;SDS011;56792;50.644;17.984;2023-06-22T11:27:38;9.40;;;8.40;;
69588;SDS011;56792;50.644;17.984;2023-06-22T11:30:08;9.70;;;8.70;;
69588;SDS011;56792;50.644;17.984;2023-06-22T11:32:37;10.20;;;9.00;;
69588;SDS011;56792;50.644;17.984;2023-06-22T11:35:06;9.20;;;8.30;;
69588;SDS011;56792;50.644;17.984;2023-06-22T11:37:35;9.80;;;8.80;;
69588;SDS011;56792;50.644;17.984;2023-06-22T11:40:04;9.70;;;8.60;;
69588;SDS011;56792;50.644;17.984;2023-06-22T11:42:35;10.10;;;8.20;;
69588;SDS011;56792;50.644;17.984;2023-06-22T11:45:06;8.90;;;8.10;;
69588;SDS011;56792;50.644;17.984;2023-06-22T11:47:35;9.40;;;8.40;;
69588;SDS011;56792;50.644;17.984;2023-06-22T11:50:04;9.70;;;8.50;;
69588;SDS011;56792;50.644;17.984;2023-06-22T11:52:34;9.50;;;8.50;;
69588;SDS011;56792;50.644;17.984;2023-06-22T11:55:03;9.50;;;8.60;;
69588;SDS011;56792;50.644;17.984;2023-06-22T11:57:35;9.20;;;8.20;;
69588;SDS011;56792;50.644;17.984;2023-06-22T12:00:05;10.20;;;9.20;;
69588;SDS011;56792;50.644;17.984;2023-06-22T12:02:43;9.80;;;8.90;;
69588;SDS011;56792;50.644;17.984;2023-06-22T12:05:12;9.60;;;8.40;;
69588;SDS011;56792;50.644;17.984;2023-06-22T12:07:40;10.00;;;9.00;;
69588;SDS011;56792;50.644;17.984;2023-06-22T12:10:09;10.70;;;8.80;;
69588;SDS011;56792;50.644;17.984;2023-06-22T12:12:38;9.50;;;8.50;;
69588;SDS011;56792;50.644;17.984;2023-06-22T12:15:07;9.80;;;8.90;;
69588;SDS011;56792;50.644;17.984;2023-06-22T12:17:36;9.70;;;8.70;;
69588;SDS011;56792;50.644;17.984;2023-06-22T12:20:06;10.10;;;8.60;;
69588;SDS011;56792;50.644;17.984;2023-06-22T12:22:36;9.30;;;8.20;;
69588;SDS011;56792;50.644;17.984;2023-06-22T12:25:06;9.60;;;8.60;;
69588;SDS011;56792;50.644;17.984;2023-06-22T12:27:35;9.00;;;8.00;;
69588;SDS011;56792;50.644;17.984;2023-06-22T12:30:06;10.40;;;8.50;;
69588;SDS011;56792;50.644;17.984;2023-06-22T12:32:35;8.80;;;7.90;;
69588;SDS011;56792;50.644;17.984;2023-06-22T12:35:05;9.20;;;8.30;;
69588;SDS011;56792;50.644;17.984;2023-06-22T12:37:38;9.20;;;8.30;;
69588;SDS011;56792;50.644;17.984;2023-06-22T12:40:09;9.20;;;7.90;;
69588;SDS011;56792;50.644;17.984;2023-06-22T12:42:38;8.50;;;7.70;;
69588;SDS011;56792;50.644;17.984;2023-06-22T12:45:08;8.70;;;7.80;;
69588;SDS011;56792;50.644;17.984;2023-06-22T12:47:37;9.00;;;8.10;;
69588;SDS011;56792;50.644;17.984;2023-06-22T12:50:07;9.60;;;8.60;;
69588;SDS011;56792;50.644;17.984;2023-06-22T12:52:38;8.60;;;7.70;;
69588;SDS011;56792;50.644;17.984;2023-06-22T12:55:09;9.30;;;8.30;;
69588;SDS011;56792;50.644;17.984;2023-06-22T12:57:37;8.70;;;7.80;;
69588;SDS011;56792;50.644;17.984;2023-06-22T13:00:10;12.00;;;8.50;;
69588;SDS011;56792;50.644;17.984;2023-06-22T13:02:40;9.60;;;8.10;;
69588;SDS011;56792;50.644;17.984;2023-06-22T13:05:09;10.10;;;7.90;;
69588;SDS011;56792;50.644;17.984;2023-06-22T13:07:37;8.50;;;7.60;;
69588;SDS011;56792;50.644;17.984;2023-06-22T13:10:07;9.40;;;8.50;;
69588;SDS011;56792;50.644;17.984;2023-06-22T13:12:36;8.80;;;7.70;;
69588;SDS011;56792;50.644;17.984;2023-06-22T13:15:06;9.10;;;7.90;;
69588;SDS011;56792;50.644;17.984;2023-06-22T13:17:35;9.20;;;8.20;;
69588;SDS011;56792;50.644;17.984;2023-06-22T13:20:05;9.10;;;8.20;;
69588;SDS011;56792;50.644;17.984;2023-06-22T13:22:35;8.60;;;7.70;;
69588;SDS011;56792;50.644;17.984;2023-06-22T13:25:08;9.90;;;8.50;;
69588;SDS011;56792;50.644;17.984;2023-06-22T13:27:38;9.00;;;8.10;;
69588;SDS011;56792;50.644;17.984;2023-06-22T13:30:09;9.30;;;7.90;;
69588;SDS011;56792;50.644;17.984;2023-06-22T13:32:38;9.40;;;7.40;;
69588;SDS011;56792;50.644;17.984;2023-06-22T13:35:09;9.20;;;7.90;;
69588;SDS011;56792;50.644;17.984;2023-06-22T13:37:37;8.30;;;7.40;;
69588;SDS011;56792;50.644;17.984;2023-06-22T13:40:08;9.90;;;7.90;;
69588;SDS011;56792;50.644;17.984;2023-06-22T13:42:36;8.40;;;7.60;;
69588;SDS011;56792;50.644;17.984;2023-06-22T13:45:07;10.50;;;7.60;;
69588;SDS011;56792;50.644;17.984;2023-06-22T13:47:36;10.00;;;8.10;;
69588;SDS011;56792;50.644;17.984;2023-06-22T13:50:06;8.50;;;7.60;;
69588;SDS011;56792;50.644;17.984;2023-06-22T13:52:35;8.40;;;7.10;;
69588;SDS011;56792;50.644;17.984;2023-06-22T13:55:04;8.10;;;7.30;;
69588;SDS011;56792;50.644;17.984;2023-06-22T13:57:34;7.90;;;7.00;;
69588;SDS011;56792;50.644;17.984;2023-06-22T14:00:02;8.40;;;7.50;;
69588;SDS011;56792;50.644;17.984;2023-06-22T14:02:38;8.10;;;7.30;;
69588;SDS011;56792;50.644;17.984;2023-06-22T14:05:09;9.70;;;7.50;;
69588;SDS011;56792;50.644;17.984;2023-06-22T14:07:38;8.40;;;7.60;;
69588;SDS011;56792;50.644;17.984;2023-06-22T14:10:07;8.20;;;7.40;;
69588;SDS011;56792;50.644;17.984;2023-06-22T14:12:36;8.50;;;7.00;;
69588;SDS011;56792;50.644;17.984;2023-06-22T14:15:06;8.00;;;6.90;;
69588;SDS011;56792;50.644;17.984;2023-06-22T14:17:35;8.80;;;7.90;;
69588;SDS011;56792;50.644;17.984;2023-06-22T14:20:05;8.70;;;7.80;;
69588;SDS011;56792;50.644;17.984;2023-06-22T14:22:35;8.40;;;6.90;;
69588;SDS011;56792;50.644;17.984;2023-06-22T14:25:06;9.10;;;7.30;;
69588;SDS011;56792;50.644;17.984;2023-06-22T14:27:34;8.20;;;7.30;;
69588;SDS011;56792;50.644;17.984;2023-06-22T14:30:03;8.90;;;7.60;;
69588;SDS011;56792;50.644;17.984;2023-06-22T14:32:33;9.40;;;8.10;;